Time;durP1;ratioP1;P1;durP2;ratioP2;P2;SDS_P1;SDS_P2;PMS_P1;PMS_P2;Temp;Humidity;BMP_temperature;BMP_pressure;BME280_temperature;BME280_humidity;BME280_pressure;Samples;Min_cycle;Max_cycle;Signal;HPM_P1;HPM_P2
2021/12/12 00:01:24;;;;;;;18.33;8.18;;;6.10;98.10;;;;;;10484213;28;20009;-62
2021/12/12 00:06:34;;;;;;;15.52;8.23;;;6.30;98.20;;;;;;10475245;28;20048;-72
2021/12/12 00:11:36;;;;;;;17.00;8.88;;;6.10;98.20;;;;;;10484125;28;20023;-67
2021/12/12 00:16:38;;;;;;;18.33;8.50;;;6.10;98.10;;;;;;10483518;28;20078;-64
2021/12/12 00:21:43;;;;;;;16.13;7.97;;;6.10;98.10;;;;;;10485105;28;20021;-64
2021/12/12 00:26:47;;;;;;;19.17;8.98;;;6.10;98.40;;;;;;10482781;28;20029;-64
2021/12/12 00:31:50;;;;;;;21.80;9.40;;;6.10;98.20;;;;;;10478908;28;20406;-64
2021/12/12 00:36:51;;;;;;;18.70;8.90;;;6.10;98.20;;;;;;10481844;28;20032;-74
2021/12/12 00:41:55;;;;;;;21.52;8.82;;;6.20;98.20;;;;;;10482371;28;20029;-73
2021/12/12 00:46:59;;;;;;;18.27;8.95;;;6.10;98.20;;;;;;10480431;28;20051;-67
2021/12/12 00:52:00;;;;;;;20.20;9.27;;;6.10;98.20;;;;;;10486056;28;20513;-72
2021/12/12 00:57:05;;;;;;;16.33;8.68;;;6.10;98.20;;;;;;10491452;28;20052;-63
2021/12/12 01:02:12;;;;;;;16.83;8.75;;;6.20;98.30;;;;;;10491864;28;20397;-74
2021/12/12 01:07:17;;;;;;;18.48;9.32;;;6.20;98.30;;;;;;10482528;28;20024;-71
2021/12/12 01:12:23;;;;;;;18.02;9.27;;;6.20;98.30;;;;;;10491004;28;20491;-73
2021/12/12 01:17:34;;;;;;;18.20;9.52;;;6.20;98.30;;;;;;10490940;28;20474;-66
2021/12/12 01:22:37;;;;;;;21.55;9.70;;;6.20;98.40;;;;;;10487050;28;20036;-64
2021/12/12 01:27:37;;;;;;;19.70;8.95;;;6.20;98.40;;;;;;10481573;28;20029;-65
2021/12/12 01:32:39;;;;;;;18.67;9.18;;;6.20;98.40;;;;;;10490577;28;20518;-74
2021/12/12 01:37:43;;;;;;;19.17;8.48;;;6.20;98.40;;;;;;10487640;28;20035;-72
2021/12/12 01:42:49;;;;;;;20.05;8.68;;;6.20;98.40;;;;;;10487777;28;20523;-62
2021/12/12 01:48:00;;;;;;;14.70;8.48;;;6.20;98.40;;;;;;10486615;28;20025;-74
2021/12/12 01:53:05;;;;;;;19.50;8.55;;;6.20;98.40;;;;;;10490069;28;20039;-69
2021/12/12 01:58:10;;;;;;;22.00;9.43;;;6.30;98.40;;;;;;10489331;28;20040;-66
2021/12/12 02:03:14;;;;;;;18.70;9.25;;;5.30;98.20;;;;;;10486656;28;20032;-64
2021/12/12 02:08:18;;;;;;;18.35;9.02;;;6.30;98.40;;;;;;10479462;28;20062;-69
2021/12/12 02:13:21;;;;;;;17.88;8.43;;;6.30;98.40;;;;;;10488994;28;20040;-74
2021/12/12 02:18:29;;;;;;;18.25;8.20;;;6.30;98.40;;;;;;10489552;28;20593;-74
2021/12/12 02:23:47;;;;;;;13.80;7.72;;;6.30;98.40;;;;;;10485364;28;20029;-68
2021/12/12 02:39:30;;;;;;;19.88;7.78;;;6.30;98.50;;;;;;10486352;28;20101;-73
2021/12/12 02:44:34;;;;;;;17.00;7.60;;;6.30;98.50;;;;;;10470185;28;20048;-68
2021/12/12 02:49:42;;;;;;;18.00;7.45;;;6.30;98.60;;;;;;10484250;28;20056;-68
2021/12/12 02:54:43;;;;;;;19.40;6.70;;;6.30;98.60;;;;;;10470478;28;20052;-74
2021/12/12 02:59:50;;;;;;;14.27;6.60;;;6.30;98.90;;;;;;10486806;28;20035;-70
2021/12/12 03:04:53;;;;;;;15.35;6.15;;;6.30;98.70;;;;;;10479823;28;20139;-67
2021/12/12 03:09:56;;;;;;;12.70;6.32;;;6.30;98.60;;;;;;10486330;28;20047;-68
2021/12/12 03:15:03;;;;;;;15.80;6.72;;;6.30;98.70;;;;;;10486239;28;20024;-70
2021/12/12 03:20:25;;;;;;;13.30;6.50;;;6.30;98.70;;;;;;10485924;28;20021;-70
2021/12/12 03:25:26;;;;;;;16.63;6.68;;;6.30;98.80;;;;;;10475909;28;20444;-67
2021/12/12 03:30:28;;;;;;;14.80;6.13;;;6.30;98.80;;;;;;10485617;28;20032;-68
2021/12/12 03:35:30;;;;;;;12.27;5.75;;;6.40;98.80;;;;;;10474883;28;20025;-73
2021/12/12 03:40:37;;;;;;;12.55;5.72;;;6.40;98.80;;;;;;10481723;28;20021;-73
2021/12/12 03:45:38;;;;;;;14.52;5.63;;;6.40;98.90;;;;;;10481722;28;20036;-67
2021/12/12 03:50:43;;;;;;;13.18;6.03;;;6.40;98.90;;;;;;10485512;28;20056;-73
2021/12/12 03:55:45;;;;;;;13.23;5.57;;;6.40;98.90;;;;;;10484876;28;20135;-74
2021/12/12 04:00:55;;;;;;;13.95;5.97;;;6.40;98.90;;;;;;10484857;28;20082;-65
2021/12/12 04:06:06;;;;;;;13.40;5.75;;;6.40;99.00;;;;;;10471275;28;20044;-72
2021/12/12 04:11:13;;;;;;;12.55;5.97;;;6.40;99.00;;;;;;10485491;28;20385;-65
2021/12/12 04:16:14;;;;;;;11.45;6.28;;;6.40;99.00;;;;;;10482661;28;20032;-74
2021/12/12 04:21:19;;;;;;;9.45;5.22;;;6.40;99.00;;;;;;10484771;28;20036;-70
2021/12/12 04:26:36;;;;;;;10.07;4.53;;;6.40;99.10;;;;;;10475137;28;20501;-66
2021/12/12 04:31:40;;;;;;;8.95;4.55;;;6.40;99.20;;;;;;10492714;28;20033;-63
2021/12/12 04:36:44;;;;;;;7.63;4.63;;;6.40;99.10;;;;;;10490025;28;20288;-66
2021/12/12 04:41:47;;;;;;;11.55;5.00;;;6.40;99.10;;;;;;10490685;28;20013;-74
2021/12/12 04:52:41;;;;;;;9.13;4.13;;;6.50;99.30;;;;;;10483139;28;20106;-72
2021/12/12 04:57:50;;;;;;;6.82;4.00;;;6.50;99.20;;;;;;10491387;28;20052;-73
2021/12/12 05:03:09;;;;;;;8.73;4.57;;;6.50;99.50;;;;;;10491253;28;20028;-74
2021/12/12 05:08:22;;;;;;;6.07;4.10;;;6.50;99.20;;;;;;10480478;28;20039;-68
2021/12/12 05:13:30;;;;;;;7.45;3.97;;;6.50;99.30;;;;;;10491070;28;20405;-69
2021/12/12 05:18:39;;;;;;;6.28;3.85;;;6.50;99.20;;;;;;10491112;28;20037;-67
2021/12/12 05:23:46;;;;;;;7.13;3.80;;;6.50;99.20;;;;;;10484257;28;20250;-71
2021/12/12 05:28:59;;;;;;;7.40;3.55;;;6.50;99.30;;;;;;10488662;28;20024;-74
2021/12/12 05:34:01;;;;;;;6.38;3.38;;;6.90;99.40;;;;;;10484992;28;20490;-66
2021/12/12 05:39:04;;;;;;;6.95;3.80;;;6.60;99.30;;;;;;10488705;28;20027;-70
2021/12/12 05:44:06;;;;;;;7.03;3.38;;;6.50;99.30;;;;;;10488398;28;20025;-74
2021/12/12 05:49:08;;;;;;;5.35;3.47;;;6.60;99.40;;;;;;10486466;28;20028;-68
2021/12/12 05:54:09;;;;;;;7.20;3.58;;;6.60;99.40;;;;;;10490212;28;20052;-67
2021/12/12 05:59:11;;;;;;;5.47;3.42;;;6.60;99.40;;;;;;10488603;28;20032;-65
2021/12/12 06:04:12;;;;;;;5.38;3.13;;;6.60;99.40;;;;;;10482942;28;20017;-71
2021/12/12 06:09:15;;;;;;;5.97;3.47;;;6.60;99.40;;;;;;10485881;28;20112;-70
2021/12/12 06:14:16;;;;;;;8.02;3.53;;;6.70;99.50;;;;;;10488575;28;20032;-74
2021/12/12 06:19:21;;;;;;;4.38;3.03;;;6.60;99.50;;;;;;10488518;28;20040;-69
2021/12/12 06:24:25;;;;;;;5.78;2.95;;;6.60;99.50;;;;;;10477978;28;20381;-67
2021/12/12 06:29:25;;;;;;;7.95;3.50;;;6.60;99.50;;;;;;10487774;28;20048;-68
2021/12/12 06:34:27;;;;;;;5.28;3.10;;;6.60;99.50;;;;;;10485192;28;20059;-66
2021/12/12 06:39:28;;;;;;;5.80;3.33;;;6.70;99.60;;;;;;10485911;28;20076;-70
2021/12/12 06:44:29;;;;;;;5.20;2.92;;;6.70;99.50;;;;;;10485770;28;20123;-73
2021/12/12 06:49:30;;;;;;;4.38;2.65;;;6.70;99.50;;;;;;10483158;28;20360;-69
2021/12/12 06:54:31;;;;;;;4.32;2.92;;;6.70;99.50;;;;;;10486885;28;20131;-72
2021/12/12 06:59:35;;;;;;;5.50;3.00;;;6.70;99.50;;;;;;10475495;28;20532;-68
2021/12/12 07:04:38;;;;;;;4.53;2.85;;;6.70;99.50;;;;;;10471370;28;20056;-70
2021/12/12 07:09:40;;;;;;;2.88;2.35;;;6.70;99.50;;;;;;10483241;28;20031;-68
2021/12/12 07:14:42;;;;;;;3.50;2.50;;;6.80;99.60;;;;;;10486175;28;20510;-74
2021/12/12 07:19:43;;;;;;;7.75;2.60;;;6.80;99.50;;;;;;10486162;28;20441;-74
2021/12/12 07:24:44;;;;;;;4.32;2.80;;;6.80;99.50;;;;;;10485131;28;20517;-69
2021/12/12 07:29:45;;;;;;;3.47;2.50;;;6.80;99.60;;;;;;10485833;28;20268;-72
2021/12/12 07:34:46;;;;;;;4.15;2.70;;;6.80;99.60;;;;;;10482984;28;20105;-68
2021/12/12 07:39:48;;;;;;;4.65;3.13;;;6.80;99.60;;;;;;10483755;28;20032;-71
2021/12/12 07:44:49;;;;;;;3.20;2.30;;;6.80;99.60;;;;;;10485188;28;20036;-73
2021/12/12 07:49:50;;;;;;;4.15;2.88;;;6.80;99.60;;;;;;10482145;28;20380;-71
2021/12/12 07:54:52;;;;;;;5.35;2.85;;;6.80;99.60;;;;;;10485500;28;20016;-68
2021/12/12 07:59:55;;;;;;;6.00;3.00;;;6.90;99.60;;;;;;10484797;28;20369;-67
2021/12/12 08:04:56;;;;;;;3.78;2.38;;;7.00;99.60;;;;;;10469719;28;20071;-72
2021/12/12 08:09:57;;;;;;;5.38;2.72;;;6.90;99.60;;;;;;10484875;28;20032;-72
2021/12/12 08:15:07;;;;;;;4.93;3.08;;;6.90;99.60;;;;;;10484740;28;20044;-71
2021/12/12 08:20:09;;;;;;;5.20;2.90;;;6.90;99.60;;;;;;10485401;28;20039;-74
2021/12/12 08:25:12;;;;;;;5.55;3.22;;;6.90;99.60;;;;;;10483928;28;20136;-73
2021/12/12 08:30:16;;;;;;;5.20;3.17;;;7.00;99.60;;;;;;10483666;28;20383;-71
2021/12/12 08:35:21;;;;;;;5.97;3.58;;;6.90;99.60;;;;;;10481854;28;20175;-72
2021/12/12 08:40:25;;;;;;;5.53;3.05;;;7.00;99.60;;;;;;10484630;28;20037;-69
2021/12/12 08:45:32;;;;;;;5.47;3.00;;;7.00;99.60;;;;;;10480949;28;20021;-72
2021/12/12 08:50:36;;;;;;;5.30;3.17;;;7.20;99.70;;;;;;10484291;28;20375;-71
2021/12/12 08:55:42;;;;;;;5.30;3.30;;;7.00;99.60;;;;;;10472853;28;20088;-68
2021/12/12 09:00:55;;;;;;;4.88;3.08;;;7.10;99.70;;;;;;10478889;28;20025;-81
2021/12/12 09:05:56;;;;;;;5.10;3.45;;;7.20;99.90;;;;;;10471498;28;20056;-67
2021/12/12 09:11:06;;;;;;;8.63;3.58;;;7.20;99.60;;;;;;10484173;28;20027;-74
2021/12/12 09:16:12;;;;;;;6.45;3.42;;;7.20;99.70;;;;;;10487697;28;20048;-64
2021/12/12 09:21:43;;;;;;;5.63;3.45;;;7.20;99.60;;;;;;10491706;28;20106;-64
2021/12/12 09:26:51;;;;;;;7.78;4.10;;;7.20;99.70;;;;;;10481124;28;20036;-75
2021/12/12 09:32:06;;;;;;;5.10;3.65;;;7.20;99.60;;;;;;10489202;28;20111;-62
2021/12/12 09:37:22;;;;;;;5.85;3.58;;;7.30;99.70;;;;;;10484233;28;20120;-66
2021/12/12 09:42:38;;;;;;;6.68;3.72;;;7.30;99.80;;;;;;10479584;28;20032;-66
2021/12/12 09:48:14;;;;;;;7.15;4.00;;;7.30;99.70;;;;;;10458576;28;20082;-64
2021/12/12 09:53:38;;;;;;;6.55;3.95;;;7.30;99.70;;;;;;10458676;28;20122;-70
2021/12/12 09:59:01;;;;;;;5.85;3.60;;;7.40;99.70;;;;;;10471921;28;20532;-74
2021/12/12 10:04:23;;;;;;;6.05;3.80;;;7.40;99.80;;;;;;10479749;28;20487;-69
2021/12/12 10:09:33;;;;;;;7.10;3.70;;;7.40;99.70;;;;;;10487719;28;20060;-71
2021/12/12 10:14:55;;;;;;;6.97;4.07;;;7.40;99.70;;;;;;10486144;28;20040;-70
2021/12/12 10:20:09;;;;;;;6.40;3.90;;;7.40;99.70;;;;;;10488933;28;20024;-65
2021/12/12 10:25:17;;;;;;;8.07;3.83;;;7.50;99.80;;;;;;10484237;28;20032;-70
2021/12/12 10:30:28;;;;;;;6.97;4.10;;;7.50;99.80;;;;;;10477174;28;20032;-71
2021/12/12 10:35:51;;;;;;;8.48;4.20;;;7.50;99.80;;;;;;10488198;28;20041;-66
2021/12/12 10:40:57;;;;;;;8.48;3.92;;;7.50;99.90;;;;;;10485903;28;20493;-67
2021/12/12 10:46:12;;;;;;;8.23;4.50;;;7.60;99.90;;;;;;10483474;28;20055;-72
2021/12/12 10:51:20;;;;;;;6.70;3.72;;;7.60;99.90;;;;;;10487346;28;20033;-71
2021/12/12 10:56:33;;;;;;;8.30;4.00;;;7.60;99.90;;;;;;10465139;28;20384;-68
2021/12/12 11:01:38;;;;;;;7.13;3.70;;;7.70;99.90;;;;;;10499595;28;20089;-65
2021/12/12 11:06:43;;;;;;;6.57;3.55;;;7.70;99.90;;;;;;10486680;28;20040;-73
2021/12/12 11:12:06;;;;;;;5.45;3.60;;;7.70;99.90;;;;;;10486382;28;20049;-69
2021/12/12 11:17:19;;;;;;;6.63;3.75;;;7.80;99.90;;;;;;10478612;28;20040;-72
2021/12/12 11:22:42;;;;;;;6.18;3.33;;;7.70;99.90;;;;;;10479089;28;20463;-71
2021/12/12 11:27:47;;;;;;;5.90;3.78;;;7.80;99.90;;;;;;10484377;28;20399;-79
2021/12/12 11:32:54;;;;;;;6.93;4.32;;;8.00;99.90;;;;;;10488208;28;20147;-68
2021/12/12 11:38:00;;;;;;;9.48;3.72;;;7.90;99.90;;;;;;10483635;28;20032;-69
2021/12/12 11:43:11;;;;;;;7.00;3.75;;;6.90;99.90;;;;;;10483644;28;20024;-67
2021/12/12 11:48:33;;;;;;;10.35;4.25;;;8.00;99.90;;;;;;10481882;28;20017;-63
2021/12/12 11:53:50;;;;;;;6.03;3.58;;;8.10;99.90;;;;;;10483138;28;20040;-66
2021/12/12 11:59:00;;;;;;;9.18;3.45;;;8.10;99.90;;;;;;10476123;28;20036;-67
2021/12/12 12:04:52;;;;;;;6.90;3.28;;;8.10;99.90;;;;;;10481427;28;20040;-70
2021/12/12 12:09:52;;;;;;;6.60;3.90;;;8.10;99.90;;;;;;10484195;28;20040;-64
2021/12/12 12:15:26;;;;;;;8.80;3.55;;;8.20;99.90;;;;;;10513538;22;20040;-66
2021/12/12 12:20:30;;;;;;;6.53;3.72;;;8.20;99.90;;;;;;10423058;28;20055;-72
2021/12/12 12:31:08;;;;;;;8.68;3.92;;;8.30;99.90;;;;;;10443306;28;20060;-75
2021/12/12 12:36:40;;;;;;;8.73;3.55;;;8.30;99.90;;;;;;10440837;28;20057;-72
2021/12/12 12:42:21;;;;;;;6.40;3.42;;;8.40;99.90;;;;;;10438099;28;20060;-71
2021/12/12 12:47:48;;;;;;;7.60;3.97;;;8.40;99.90;;;;;;10440002;28;20041;-70
2021/12/12 12:53:18;;;;;;;7.13;3.50;;;8.40;99.90;;;;;;10429385;28;20446;-72
2021/12/12 12:58:30;;;;;;;7.38;3.28;;;8.40;99.90;;;;;;10394240;28;20039;-70
2021/12/12 13:04:02;;;;;;;8.02;3.83;;;8.40;99.90;;;;;;10432704;28;20040;-70
2021/12/12 13:09:41;;;;;;;11.65;3.97;;;8.40;99.90;;;;;;10430449;28;20060;-71
2021/12/12 13:15:00;;;;;;;;;;;8.50;99.90;;;;;;10323781;28;20794;-70
2021/12/12 13:20:24;;;;;;;6.20;3.40;;;8.50;99.90;;;;;;10436262;28;19925;-70
2021/12/12 13:25:49;;;;;;;5.88;3.88;;;8.50;99.90;;;;;;10436092;28;20712;-67
2021/12/12 13:31:16;;;;;;;11.82;5.38;;;8.50;99.90;;;;;;10434080;28;20033;-65
2021/12/12 13:36:39;;;;;;;5.20;3.53;;;8.60;99.90;;;;;;10428873;28;20406;-64
2021/12/12 13:42:24;;;;;;;7.88;3.78;;;8.50;99.90;;;;;;10447296;28;20059;-64
2021/12/12 13:48:09;;;;;;;6.43;3.75;;;8.60;99.90;;;;;;10235886;29;20087;-70
2021/12/12 13:53:33;;;;;;;9.07;3.88;;;8.60;99.90;;;;;;10374283;28;20111;-67
2021/12/12 13:58:37;;;;;;;5.68;3.63;;;8.60;99.90;;;;;;10442370;28;20082;-67
2021/12/12 14:03:49;;;;;;;8.85;3.97;;;8.60;99.90;;;;;;10439302;28;20036;-70
2021/12/12 14:08:52;;;;;;;7.45;4.15;;;8.60;99.90;;;;;;10440178;28;20467;-68
2021/12/12 14:14:01;;;;;;;7.78;3.92;;;8.60;99.90;;;;;;10449145;28;20063;-67
2021/12/12 14:19:22;;;;;;;;;;;8.60;99.90;;;;;;10448252;28;20033;-69
2021/12/12 14:24:25;;;;;;;8.05;3.75;;;8.60;99.90;;;;;;10445056;28;19920;-69
2021/12/12 14:29:29;;;;;;;6.53;3.88;;;8.60;99.90;;;;;;10447374;28;20444;-69
2021/12/12 14:34:57;;;;;;;6.53;3.92;;;8.60;99.90;;;;;;10444484;28;20047;-70
2021/12/12 14:40:19;;;;;;;5.57;3.77;;;8.60;99.90;;;;;;10444317;28;20024;-70
2021/12/12 14:45:40;;;;;;;6.50;3.95;;;8.60;99.90;;;;;;10442082;28;20037;-67
2021/12/12 14:50:48;;;;;;;5.78;3.78;;;8.60;99.90;;;;;;10446072;28;20032;-69
2021/12/12 14:55:55;;;;;;;5.90;3.33;;;8.80;99.90;;;;;;10445635;28;20036;-69
2021/12/12 15:01:03;;;;;;;5.35;3.70;;;8.70;99.90;;;;;;10444975;28;20054;-68
2021/12/12 15:06:08;;;;;;;5.75;3.55;;;8.70;99.90;;;;;;10435516;28;20087;-67
2021/12/12 15:11:34;;;;;;;6.65;3.67;;;8.60;99.90;;;;;;10443691;28;20044;-69
2021/12/12 15:16:38;;;;;;;6.72;3.83;;;8.70;99.90;;;;;;10444427;28;20110;-71
2021/12/12 15:21:46;;;;;;;6.90;3.72;;;8.50;99.90;;;;;;10443641;28;20095;-65
2021/12/12 15:26:56;;;;;;;7.45;4.05;;;8.70;99.90;;;;;;10442976;28;20108;-69
2021/12/12 15:32:17;;;;;;;7.10;4.07;;;8.70;99.90;;;;;;10433674;28;20116;-69
2021/12/12 15:37:19;;;;;;;6.50;3.80;;;8.70;99.90;;;;;;10421375;28;20037;-68
2021/12/12 15:42:22;;;;;;;5.40;3.45;;;8.70;99.90;;;;;;10423652;28;20033;-68
2021/12/12 15:47:26;;;;;;;6.50;3.47;;;8.70;99.90;;;;;;10437439;28;20037;-71
2021/12/12 15:52:33;;;;;;;6.90;3.67;;;8.70;99.90;;;;;;10442645;28;20507;-70
2021/12/12 15:57:38;;;;;;;6.07;3.60;;;8.70;99.90;;;;;;10417080;28;20043;-67
2021/12/12 16:02:41;;;;;;;5.68;3.35;;;8.80;99.90;;;;;;10423124;28;20025;-66
2021/12/12 16:07:46;;;;;;;5.55;3.72;;;8.80;99.90;;;;;;10413775;28;20033;-69
2021/12/12 16:12:50;;;;;;;6.05;3.53;;;8.80;99.90;;;;;;10407346;28;20049;-74
2021/12/12 16:17:55;;;;;;;5.03;3.60;;;8.80;99.90;;;;;;10416322;28;20041;-66
2021/12/12 16:22:58;;;;;;;6.00;4.00;;;8.80;99.90;;;;;;10439239;28;20047;-60
2021/12/12 16:28:00;;;;;;;5.85;4.05;;;8.80;99.90;;;;;;10438868;28;20470;-66
2021/12/12 16:33:06;;;;;;;5.20;3.38;;;8.90;99.90;;;;;;10426745;28;20041;-72
2021/12/12 16:38:14;;;;;;;6.30;3.88;;;8.90;99.90;;;;;;10435366;28;20024;-68
2021/12/12 16:43:19;;;;;;;4.93;3.33;;;8.90;99.90;;;;;;10436289;28;20044;-59
2021/12/12 16:48:25;;;;;;;5.82;3.60;;;8.90;99.90;;;;;;10440833;28;20557;-62
2021/12/12 16:53:30;;;;;;;6.32;3.45;;;8.90;99.90;;;;;;10440963;28;20146;-70
2021/12/12 16:58:36;;;;;;;5.68;3.40;;;8.90;99.90;;;;;;10436560;28;20043;-68
2021/12/12 17:03:40;;;;;;;6.00;3.40;;;9.00;99.90;;;;;;10440849;28;20029;-66
2021/12/12 17:13:52;;;;;;;6.03;3.75;;;9.10;99.90;;;;;;10440592;28;20114;-65
2021/12/12 17:18:55;;;;;;;5.25;3.22;;;9.10;99.90;;;;;;10445869;28;20138;-75
2021/12/12 17:24:05;;;;;;;6.65;3.17;;;9.00;99.90;;;;;;10446653;28;20040;-68
2021/12/12 17:29:11;;;;;;;6.22;3.17;;;9.00;99.90;;;;;;10451970;28;20107;-62
2021/12/12 17:34:22;;;;;;;7.25;3.58;;;9.00;99.90;;;;;;10455625;28;20065;-59
2021/12/12 17:39:32;;;;;;;5.78;3.70;;;9.00;99.90;;;;;;10450756;28;20033;-60
2021/12/12 17:44:55;;;;;;;6.22;3.95;;;9.00;99.90;;;;;;10441501;28;20032;-60
2021/12/12 17:50:17;;;;;;;7.78;3.90;;;9.00;99.90;;;;;;10448106;28;20068;-61
2021/12/12 17:55:43;;;;;;;6.43;3.88;;;9.00;99.90;;;;;;10444142;28;20039;-64
2021/12/12 18:01:16;;;;;;;6.88;4.05;;;9.10;99.90;;;;;;10440522;28;20055;-62
2021/12/12 18:06:32;;;;;;;7.60;3.63;;;9.10;99.90;;;;;;10426592;28;20037;-66
2021/12/12 18:11:35;;;;;;;8.02;4.13;;;9.10;99.90;;;;;;10430684;28;20395;-61
2021/12/12 18:16:57;;;;;;;8.38;4.40;;;9.10;99.90;;;;;;10428914;28;20053;-64
2021/12/12 18:21:58;;;;;;;8.30;4.55;;;9.20;99.90;;;;;;10443179;28;20071;-68
2021/12/12 18:27:10;;;;;;;7.90;4.20;;;9.10;99.90;;;;;;10440626;28;20035;-64
2021/12/12 18:32:38;;;;;;;8.10;4.07;;;9.10;99.90;;;;;;10434111;28;20028;-66
2021/12/12 18:37:45;;;;;;;9.32;4.35;;;9.20;99.90;;;;;;10415712;28;20079;-65
2021/12/12 18:42:50;;;;;;;7.38;4.00;;;9.20;99.90;;;;;;10413468;28;20088;-71
2021/12/12 18:47:57;;;;;;;7.38;3.42;;;9.20;99.90;;;;;;10412719;28;20029;-69
2021/12/12 18:53:09;;;;;;;9.88;3.97;;;9.20;99.90;;;;;;10430583;28;20083;-71
2021/12/12 18:58:19;;;;;;;7.75;4.30;;;9.20;99.90;;;;;;10424566;28;20537;-71
2021/12/12 19:03:29;;;;;;;7.07;3.78;;;9.20;99.90;;;;;;10437350;28;20078;-70
2021/12/12 19:08:35;;;;;;;10.18;4.00;;;9.20;99.90;;;;;;10409896;28;20079;-71
2021/12/12 19:13:40;;;;;;;8.55;4.38;;;9.20;99.90;;;;;;10421852;28;20036;-70
2021/12/12 19:18:44;;;;;;;8.20;4.32;;;9.30;99.90;;;;;;10430070;28;20041;-71
2021/12/12 19:23:52;;;;;;;12.45;4.80;;;9.30;99.90;;;;;;10438457;28;20533;-70
2021/12/12 19:28:55;;;;;;;8.82;4.38;;;9.30;99.90;;;;;;10435771;28;20467;-70
2021/12/12 19:34:15;;;;;;;8.18;4.40;;;9.30;99.90;;;;;;10416027;28;20033;-70
2021/12/12 19:39:32;;;;;;;9.55;5.07;;;9.30;99.90;;;;;;10432586;28;20403;-71
2021/12/12 19:44:35;;;;;;;11.65;5.32;;;9.30;99.90;;;;;;10433328;28;20071;-70
2021/12/12 19:49:37;;;;;;;11.45;5.15;;;9.40;99.90;;;;;;10433048;28;20440;-77
2021/12/12 19:54:38;;;;;;;11.05;5.22;;;9.30;99.90;;;;;;10438382;28;20064;-75
2021/12/12 19:59:45;;;;;;;10.98;5.03;;;9.40;99.90;;;;;;10433043;28;20036;-70
2021/12/12 20:04:57;;;;;;;13.43;5.43;;;9.40;99.90;;;;;;10438454;28;20159;-71
2021/12/12 20:10:14;;;;;;;11.52;5.22;;;9.40;99.90;;;;;;10433084;28;20017;-71
2021/12/12 20:15:20;;;;;;;11.55;5.80;;;9.40;99.90;;;;;;10439089;28;20123;-70
2021/12/12 20:20:33;;;;;;;11.40;5.25;;;9.40;99.90;;;;;;10433483;28;20033;-67
2021/12/12 20:25:42;;;;;;;11.55;6.10;;;9.40;99.90;;;;;;10434148;28;20009;-71
2021/12/12 20:30:53;;;;;;;14.98;6.30;;;9.40;99.90;;;;;;10439668;28;20044;-71
2021/12/12 20:36:03;;;;;;;13.10;5.32;;;9.40;99.90;;;;;;10438224;28;20029;-71
2021/12/12 20:41:16;;;;;;;11.40;6.07;;;9.50;99.90;;;;;;10431981;28;20029;-70
2021/12/12 20:46:25;;;;;;;11.38;5.88;;;9.40;99.90;;;;;;10440170;28;20100;-68
2021/12/12 20:51:31;;;;;;;12.93;6.35;;;9.40;99.90;;;;;;10433462;28;20037;-69
2021/12/12 20:56:40;;;;;;;13.00;6.47;;;9.50;99.90;;;;;;10437824;28;20037;-68
2021/12/12 21:01:46;;;;;;;;;;;9.50;99.90;;;;;;10436411;28;20036;-70
2021/12/12 21:06:55;;;;;;;14.38;6.55;;;9.50;99.90;;;;;;10418592;28;20089;-71
2021/12/12 21:12:09;;;;;;;16.63;6.60;;;9.50;99.90;;;;;;10444081;28;20048;-70
2021/12/12 21:17:16;;;;;;;15.82;7.65;;;9.50;99.90;;;;;;10447459;28;20048;-71
2021/12/12 21:22:19;;;;;;;14.27;6.22;;;9.50;99.90;;;;;;10447119;28;20056;-68
2021/12/12 21:27:30;;;;;;;16.92;7.30;;;9.50;99.90;;;;;;10445038;28;20166;-71
2021/12/12 21:32:31;;;;;;;18.85;8.00;;;9.50;99.90;;;;;;10441817;28;20037;-67
2021/12/12 21:37:32;;;;;;;17.45;6.90;;;9.50;99.90;;;;;;10427342;28;20155;-68
2021/12/12 21:42:40;;;;;;;18.50;7.97;;;9.50;99.90;;;;;;10443969;28;20602;-66
2021/12/12 21:47:48;;;;;;;18.25;6.85;;;9.50;99.90;;;;;;10438569;28;20211;-69
2021/12/12 21:53:16;;;;;;;20.70;7.30;;;9.50;99.90;;;;;;10446060;28;20025;-67
2021/12/12 21:58:28;;;;;;;18.50;6.95;;;9.50;99.90;;;;;;10424312;28;20025;-70
2021/12/12 22:03:34;;;;;;;17.15;7.30;;;9.50;99.90;;;;;;10443515;28;20554;-70
2021/12/12 22:08:44;;;;;;;17.88;8.13;;;9.60;99.90;;;;;;10432700;28;20021;-71
2021/12/12 22:13:48;;;;;;;16.33;7.15;;;9.60;99.90;;;;;;10415202;28;20041;-71
2021/12/12 22:19:15;;;;;;;16.95;7.57;;;9.60;99.90;;;;;;10411432;28;20045;-71
2021/12/12 22:24:20;;;;;;;19.63;7.53;;;9.60;99.90;;;;;;10440405;28;20116;-71
2021/12/12 22:29:30;;;;;;;15.90;7.05;;;9.60;99.90;;;;;;10439201;28;20025;-72
2021/12/12 22:34:37;;;;;;;19.65;7.53;;;9.60;99.90;;;;;;10433295;28;20436;-66
2021/12/12 22:39:48;;;;;;;21.63;8.40;;;9.60;99.90;;;;;;10443085;28;20045;-72
2021/12/12 22:45:00;;;;;;;18.23;7.50;;;9.60;99.90;;;;;;10426748;28;20529;-72
2021/12/12 22:50:09;;;;;;;14.82;7.00;;;9.60;99.90;;;;;;10444903;28;20039;-67
2021/12/12 22:55:33;;;;;;;16.95;6.82;;;9.70;99.90;;;;;;10442097;28;20036;-71
2021/12/12 23:00:37;;;;;;;23.90;6.82;;;9.60;99.90;;;;;;10441257;28;20044;-68
2021/12/12 23:05:46;;;;;;;23.58;7.82;;;9.70;99.90;;;;;;10444750;28;20044;-69
2021/12/12 23:10:52;;;;;;;;;;;9.60;99.90;;;;;;10450484;28;20282;-71
2021/12/12 23:16:06;;;;;;;19.42;7.60;;;9.70;99.90;;;;;;10445165;28;19921;-70
2021/12/12 23:21:19;;;;;;;21.70;8.30;;;9.70;99.90;;;;;;10444826;28;20024;-70
2021/12/12 23:26:26;;;;;;;21.92;7.50;;;9.70;99.90;;;;;;10446767;28;20291;-70
2021/12/12 23:31:40;;;;;;;18.02;7.30;;;9.70;99.90;;;;;;10444954;28;20468;-70
2021/12/12 23:36:41;;;;;;;19.35;7.53;;;9.70;99.90;;;;;;10442215;28;20036;-72
2021/12/12 23:41:56;;;;;;;18.00;7.68;;;9.70;99.90;;;;;;10443059;28;20387;-67
2021/12/12 23:47:02;;;;;;;22.05;8.38;;;9.70;99.90;;;;;;10438234;28;20473;-72
2021/12/12 23:52:35;;;;;;;16.05;7.63;;;9.70;99.90;;;;;;10443375;28;20049;-71
2021/12/12 23:57:36;;;;;;;21.02;7.70;;;9.70;99.90;;;;;;10443557;28;20083;-71
